NCAR-RAP Real-Time Weather Data

Output produced by METARs form (06 May 2021  17:10 UTC)
found at http://weather.rap.ucar.edu/surface/
 
KCKB 061653Z 10SM CLR 13/03 A3010 RMK AO2 SLP189 T01280028
KCKB 061553Z 00000KT 10SM CLR 11/03 A3012 RMK AO2 SLP196 T01110028
KCKB 061453Z COR 03003KT 10SM SCT045 10/03 A3015 RMK AO2 SLP206 T01000028 58000
KCKB 061353Z 04005KT 10SM FEW020 09/04 A3015 RMK AO2 SLP207 T00890039
KCKB 061318Z 06004KT 10SM BKN019 BKN024 08/04 A3015 RMK AO2 T00830044
KCKB 061253Z 00000KT 10SM CLR 08/04 A3015 RMK AO2 SLP207 T00780044
KCKB 061153Z 00000KT 10SM CLR 05/03 A3013 RMK AO2 SLP201 70026 T00500033 10067 20017 53005
KCKB 061053Z 00000KT 5SM BR CLR 02/02 A3012 RMK AO2 SLP197 T00170017
KCKB 061021Z AUTO 00000KT 5SM BR CLR 02/02 A3011 RMK AO2 T00220017 TSNO
KCKB 061014Z AUTO 00000KT 2 1/2SM BR CLR 02/02 A3011 RMK AO2 T00220017 TSNO
KCKB 060953Z AUTO 00000KT 4SM BR CLR 02/02 A3012 RMK AO2 SLP197 T00220017 TSNO
KCKB 060853Z AUTO 00000KT 10SM CLR 03/02 A3012 RMK AO2 SLP196 T00330017 53005 TSNO
KCKB 060753Z AUTO 00000KT 10SM CLR 04/02 A3011 RMK AO2 SLP193 T00390022 TSNO
KCKB 060653Z AUTO 02003KT 10SM CLR 04/02 A3009 RMK AO2 SLP188 T00390022 TSNO
KCKB 060553Z AUTO 00000KT 10SM CLR 06/02 A3010 RMK AO2 SLP190 T00610022 10122 20061 50001 TSNO
KCKB 060453Z AUTO 33005KT 10SM FEW049 07/03 A3010 RMK AO2 SLP190 T00720028 401890072 TSNO
KCKB 060353Z AUTO 34006KT 10SM FEW028 OVC044 09/03 A3010 RMK AO2 SLP189 T00890033 TSNO
KCKB 060253Z AUTO 35010KT 10SM OVC046 09/04 A3010 RMK AO2 SLP188 T00940044 51028 TSNO
KCKB 060153Z 33006KT 10SM BKN050 10/06 A3007 RMK AO2 SLP179 T01000056